Roza A — TCRB7 — position and weather

sailwx.info

Track history (hours):
 
Tides and Currents Weather Stations Pressure Air Temp Water Temp Dewpoint Dewpoint Depression Visibility Wind Speed Wind Dir Waves Ship Positions

Roza A

Last reported at 2015-Mar-31 19:33 UTC. Time now 2015-Apr-02 07:53 UTC.
Position N 37°44' E 024°16'.

Length 169 m; draft 8.3 m.

Type: Ship (hazmat cat A). MMSI: 271001057.

Date/timePositionNaut miles runAvg speedWind from/ knotsBaromVisibWave heightAir tempDewpointWater temp
2015-Mar-31 19:33N 37°44' E 024°16'271 5.4
2015-Mar-29 17:04N 40°50' E 028°31'710.1
2015-Mar-29 16:22N 40°46' E 028°39'8 9.5
2015-Mar-29 15:32N 40°44' E 028°49'1010.2
2015-Mar-29 14:32N 40°44' E 029°02'1010.3
2015-Mar-29 13:33N 40°44' E 029°16'1210.4
2015-Mar-29 12:25N 40°45' E 029°31'8 9.5
2015-Mar-29 11:32N 40°46' E 029°42'0 0.2
2015-Mar-29 10:09N 40°46' E 029°42'0 0.0
2015-Mar-29 09:33N 40°46' E 029°42'0 0.0
2015-Mar-29 08:21N 40°46' E 029°42'0 0.0
2015-Mar-29 07:33N 40°46' E 029°42'0 0.0
2015-Mar-29 06:33N 40°46' E 029°42'0 0.0
2015-Mar-29 05:27N 40°46' E 029°42'0 0.0
2015-Mar-29 04:33N 40°46' E 029°42'0 0.0
2015-Mar-29 03:15N 40°46' E 029°42'0 0.0
2015-Mar-29 02:21N 40°46' E 029°42'0 0.0
2015-Mar-29 00:09N 40°46' E 029°42'0 0.0
2015-Mar-28 23:21N 40°46' E 029°42'0 0.0
2015-Mar-28 22:33N 40°46' E 029°42'0 0.0
2015-Mar-28 21:27N 40°46' E 029°42'0 0.0
2015-Mar-28 20:21N 40°46' E 029°42'0 0.0
2015-Mar-28 16:24N 40°46' E 029°42'0 0.0
2015-Mar-28 15:22N 40°46' E 029°42'7 7.5
2015-Mar-28 14:30N 40°45' E 029°34'9 9.7
2015-Mar-28 13:32N 40°44' E 029°22'8 8.5
2015-Mar-28 12:33N 40°44' E 029°11'0 0.3
2015-Mar-28 11:33N 40°45' E 029°11'0 0.4
2015-Mar-28 10:33N 40°45' E 029°10'0 0.2
2015-Mar-28 09:33N 40°45' E 029°10'0 0.1
2015-Mar-28 08:33N 40°45' E 029°10'0 0.1
2015-Mar-28 07:33N 40°45' E 029°10'0 0.2
2015-Mar-28 06:33N 40°45' E 029°10'0 0.4
2015-Mar-28 05:33N 40°45' E 029°10'7 7.3
2015-Mar-28 04:33N 40°41' E 029°01'1110.3
2015-Mar-28 03:32N 40°36' E 028°49'16 7.0
2015-Mar-28 01:12N 40°25' E 029°04'0 0.3
2015-Mar-28 00:19N 40°25' E 029°05'0 0.0
2015-Mar-27 23:19N 40°25' E 029°05'0 0.0
2015-Mar-27 22:25N 40°25' E 029°05'0 0.0
2015-Mar-27 21:25N 40°25' E 029°05'0 0.0
2015-Mar-27 20:25N 40°25' E 029°05'0 0.0
2015-Mar-27 18:31N 40°25' E 029°05'0 0.0
2015-Mar-27 15:31N 40°25' E 029°05'0 0.0
2015-Mar-27 14:31N 40°25' E 029°05'0 0.0
2015-Mar-27 13:25N 40°25' E 029°05'0 0.0
2015-Mar-27 12:25N 40°25' E 029°05'0 0.0
2015-Mar-27 11:19N 40°25' E 029°05'0 0.0
2015-Mar-27 10:31N 40°25' E 029°05'0 0.0
2015-Mar-27 09:31N 40°25' E 029°05'1 0.8
2015-Mar-27 08:33N 40°25' E 029°04'2 0.1
2015-Mar-26 15:22N 40°28' E 029°05'17 9.4
2015-Mar-26 13:32N 40°32' E 028°43'1313.3
2015-Mar-26 12:33N 40°45' E 028°41'1211.5
2015-Mar-26 11:28N 40°58' E 028°41'0 0.1
2015-Mar-26 09:31N 40°58' E 028°40'0 0.0
2015-Mar-26 06:31N 40°58' E 028°40'0 0.0
2015-Mar-26 05:13N 40°58' E 028°40'0 0.0
2015-Mar-25 20:10N 40°58' E 028°40'1 0.1
2015-Mar-25 09:33N 40°57' E 028°41'4 3.0
2015-Mar-25 08:23N 40°55' E 028°38'0 0.4
2015-Mar-25 07:29N 40°55' E 028°38'10 9.5
2015-Mar-25 06:29N 40°54' E 028°25'19812.3
2015-Mar-24 14:22N 39°47' E 024°20'1213.2
2015-Mar-24 13:29N 39°48' E 024°05'132 3.0
2015-Mar-22 17:25N 37°36' E 023°57'1213.4
2015-Mar-22 16:33N 37°39' E 023°43'1413.6
2015-Mar-22 15:33N 37°52' E 023°37'6 2.7
2015-Mar-22 13:29N 37°57' E 023°36'0 0.0
2015-Mar-22 12:32N 37°57' E 023°36'0 0.0
2015-Mar-22 11:29N 37°57' E 023°36'0 0.0
2015-Mar-22 10:32N 37°57' E 023°36'0 0.0
2015-Mar-22 09:29N 37°57' E 023°36'0 0.0
2015-Mar-22 08:26N 37°57' E 023°36'0 0.0
2015-Mar-22 07:26N 37°57' E 023°36'0 0.0
2015-Mar-22 06:29N 37°57' E 023°36'3 3.1
2015-Mar-22 05:33N 37°55' E 023°37'1110.7
2015-Mar-22 04:33N 37°45' E 023°43'1413.4
2015-Mar-22 03:33N 37°32' E 023°45'  
Track history (hours):
 
Tides and Currents Weather Stations Pressure Air Temp Water Temp Dewpoint Dewpoint Depression Visibility Wind Speed Wind Dir Waves Ship Positions

Roza A

Last reported at 2015-Mar-31 19:33 UTC. Time now 2015-Apr-02 07:53 UTC.
Position N 37°44' E 024°16'.

Length 169 m; draft 8.3 m.

Type: Ship (hazmat cat A). MMSI: 271001057.

Date/timePositionNaut miles runAvg speedWind from/ knotsBaromVisibWave heightAir tempDewpointWater temp
2015-Mar-31 19:33N 37°44' E 024°16'271 5.4
2015-Mar-29 17:04N 40°50' E 028°31'710.1
2015-Mar-29 16:22N 40°46' E 028°39'8 9.5
2015-Mar-29 15:32N 40°44' E 028°49'1010.2
2015-Mar-29 14:32N 40°44' E 029°02'1010.3
2015-Mar-29 13:33N 40°44' E 029°16'1210.4
2015-Mar-29 12:25N 40°45' E 029°31'8 9.5
2015-Mar-29 11:32N 40°46' E 029°42'0 0.2
2015-Mar-29 10:09N 40°46' E 029°42'0 0.0
2015-Mar-29 09:33N 40°46' E 029°42'0 0.0
2015-Mar-29 08:21N 40°46' E 029°42'0 0.0
2015-Mar-29 07:33N 40°46' E 029°42'0 0.0
2015-Mar-29 06:33N 40°46' E 029°42'0 0.0
2015-Mar-29 05:27N 40°46' E 029°42'0 0.0
2015-Mar-29 04:33N 40°46' E 029°42'0 0.0
2015-Mar-29 03:15N 40°46' E 029°42'0 0.0
2015-Mar-29 02:21N 40°46' E 029°42'0 0.0
2015-Mar-29 00:09N 40°46' E 029°42'0 0.0
2015-Mar-28 23:21N 40°46' E 029°42'0 0.0
2015-Mar-28 22:33N 40°46' E 029°42'0 0.0
2015-Mar-28 21:27N 40°46' E 029°42'0 0.0
2015-Mar-28 20:21N 40°46' E 029°42'0 0.0
2015-Mar-28 16:24N 40°46' E 029°42'0 0.0
2015-Mar-28 15:22N 40°46' E 029°42'7 7.5
2015-Mar-28 14:30N 40°45' E 029°34'9 9.7
2015-Mar-28 13:32N 40°44' E 029°22'8 8.5
2015-Mar-28 12:33N 40°44' E 029°11'0 0.3
2015-Mar-28 11:33N 40°45' E 029°11'0 0.4
2015-Mar-28 10:33N 40°45' E 029°10'0 0.2
2015-Mar-28 09:33N 40°45' E 029°10'0 0.1
2015-Mar-28 08:33N 40°45' E 029°10'0 0.1
2015-Mar-28 07:33N 40°45' E 029°10'0 0.2
2015-Mar-28 06:33N 40°45' E 029°10'0 0.4
2015-Mar-28 05:33N 40°45' E 029°10'7 7.3
2015-Mar-28 04:33N 40°41' E 029°01'1110.3
2015-Mar-28 03:32N 40°36' E 028°49'16 7.0
2015-Mar-28 01:12N 40°25' E 029°04'0 0.3
2015-Mar-28 00:19N 40°25' E 029°05'0 0.0
2015-Mar-27 23:19N 40°25' E 029°05'0 0.0
2015-Mar-27 22:25N 40°25' E 029°05'0 0.0
2015-Mar-27 21:25N 40°25' E 029°05'0 0.0
2015-Mar-27 20:25N 40°25' E 029°05'0 0.0
2015-Mar-27 18:31N 40°25' E 029°05'0 0.0
2015-Mar-27 15:31N 40°25' E 029°05'0 0.0
2015-Mar-27 14:31N 40°25' E 029°05'0 0.0
2015-Mar-27 13:25N 40°25' E 029°05'0 0.0
2015-Mar-27 12:25N 40°25' E 029°05'0 0.0
2015-Mar-27 11:19N 40°25' E 029°05'0 0.0
2015-Mar-27 10:31N 40°25' E 029°05'0 0.0
2015-Mar-27 09:31N 40°25' E 029°05'1 0.8
2015-Mar-27 08:33N 40°25' E 029°04'2 0.1
2015-Mar-26 15:22N 40°28' E 029°05'17 9.4
2015-Mar-26 13:32N 40°32' E 028°43'1313.3
2015-Mar-26 12:33N 40°45' E 028°41'1211.5
2015-Mar-26 11:28N 40°58' E 028°41'0 0.1
2015-Mar-26 09:31N 40°58' E 028°40'0 0.0
2015-Mar-26 06:31N 40°58' E 028°40'0 0.0
2015-Mar-26 05:13N 40°58' E 028°40'0 0.0
2015-Mar-25 20:10N 40°58' E 028°40'1 0.1
2015-Mar-25 09:33N 40°57' E 028°41'4 3.0
2015-Mar-25 08:23N 40°55' E 028°38'0 0.4
2015-Mar-25 07:29N 40°55' E 028°38'10 9.5
2015-Mar-25 06:29N 40°54' E 028°25'19812.3
2015-Mar-24 14:22N 39°47' E 024°20'1213.2
2015-Mar-24 13:29N 39°48' E 024°05'132 3.0
2015-Mar-22 17:25N 37°36' E 023°57'1213.4
2015-Mar-22 16:33N 37°39' E 023°43'1413.6
2015-Mar-22 15:33N 37°52' E 023°37'6 2.7
2015-Mar-22 13:29N 37°57' E 023°36'0 0.0
2015-Mar-22 12:32N 37°57' E 023°36'0 0.0
2015-Mar-22 11:29N 37°57' E 023°36'0 0.0
2015-Mar-22 10:32N 37°57' E 023°36'0 0.0
2015-Mar-22 09:29N 37°57' E 023°36'0 0.0
2015-Mar-22 08:26N 37°57' E 023°36'0 0.0
2015-Mar-22 07:26N 37°57' E 023°36'0 0.0
2015-Mar-22 06:29N 37°57' E 023°36'3 3.1
2015-Mar-22 05:33N 37°55' E 023°37'1110.7
2015-Mar-22 04:33N 37°45' E 023°43'1413.4
2015-Mar-22 03:33N 37°32' E 023°45'  

Dump ship's entire track history